Riverside/March AFB, California
Current Conditions -  °F | °C
As of 5:58 AM on Monday 24 Nov 2014 (Local Time) from KRIV Reporting Station
Clear Clear  
Wind Chill: 42°   Ceiling: Unl
Heat Index: 42°   Visibility: 10mi
Dew Point: 11°   Wind: 1mph
Humidity: 29%   Direction: 330°NNW
Pressure: 30.19"   Gusts: NA
Location:  33.9°N, 117.25°W
Report Text: KRIV 241358Z AUTO 33001KT 10SM CLR 06/M11 A3019 RMK AO2 SLP222 T00571114
Loading
Personal Weather Stations






























Interactive Weather Map New forecast layout! Learn more

10-Day Weather Forecast

Advertisements
Track Severe Weather on mobile